createdAt,value
2023-09-26T00:01:52.710Z,93.30
2023-09-26T00:04:55.624Z,93.60
2023-09-26T00:07:58.796Z,93.80
2023-09-26T00:11:01.260Z,93.60
2023-09-26T00:14:06.278Z,93.70
2023-09-26T00:17:09.593Z,94.00
2023-09-26T00:20:34.180Z,94.00
2023-09-26T00:23:36.634Z,94.10
2023-09-26T00:26:38.875Z,94.00
2023-09-26T00:29:41.955Z,93.60
2023-09-26T00:32:45.412Z,93.80
2023-09-26T00:35:47.581Z,93.80
2023-09-26T00:38:49.818Z,93.70
2023-09-26T00:41:52.202Z,93.70
2023-09-26T00:44:54.436Z,93.80
2023-09-26T00:47:56.713Z,93.40
2023-09-26T00:51:00.332Z,93.50
2023-09-26T00:54:04.043Z,93.50
2023-09-26T00:57:06.749Z,93.70
2023-09-26T01:00:14.230Z,93.70
2023-09-26T01:03:17.497Z,93.80
2023-09-26T01:06:20.041Z,94.00
2023-09-26T01:09:24.421Z,94.20
2023-09-26T01:12:27.631Z,94.10
2023-09-26T01:15:37.356Z,94.20
2023-09-26T01:18:39.529Z,94.40
2023-09-26T01:21:41.649Z,94.70
2023-09-26T01:24:44.850Z,95.20
2023-09-26T01:27:48.095Z,95.40
2023-09-26T01:30:50.487Z,95.80
2023-09-26T01:33:53.093Z,96.00
2023-09-26T01:36:55.741Z,96.10
2023-09-26T01:39:58.025Z,96.30
2023-09-26T01:43:00.199Z,96.70
2023-09-26T01:46:02.592Z,96.90
2023-09-26T01:49:05.083Z,96.80
2023-09-26T01:52:07.369Z,96.70
2023-09-26T01:55:15.655Z,96.70
2023-09-26T01:58:17.975Z,96.80
2023-09-26T02:01:20.424Z,97.20
2023-09-26T02:04:22.728Z,97.20
2023-09-26T02:07:26.164Z,97.40
2023-09-26T02:10:28.476Z,97.70
2023-09-26T02:13:30.771Z,97.50
2023-09-26T02:16:33.156Z,97.40
2023-09-26T02:19:35.330Z,97.10
2023-09-26T02:22:37.784Z,97.20
2023-09-26T02:25:40.669Z,97.10
2023-09-26T02:28:42.767Z,97.00
2023-09-26T02:31:44.982Z,97.10
2023-09-26T02:34:47.193Z,97.40
2023-09-26T02:37:50.562Z,97.60
2023-09-26T02:40:52.820Z,97.50
2023-09-26T02:43:57.013Z,97.60
2023-09-26T02:46:59.458Z,97.80
2023-09-26T02:50:02.885Z,97.90
2023-09-26T02:53:07.089Z,97.80
2023-09-26T02:56:12.236Z,98.00
2023-09-26T02:59:14.453Z,98.20
2023-09-26T03:02:16.641Z,97.70
2023-09-26T03:05:19.346Z,97.90
2023-09-26T03:08:21.651Z,98.00
2023-09-26T03:11:25.936Z,97.80
2023-09-26T03:14:28.605Z,98.10
2023-09-26T03:17:31.154Z,98.00
2023-09-26T03:20:37.705Z,98.10
2023-09-26T03:23:40.206Z,98.40
2023-09-26T03:26:42.343Z,98.50
2023-09-26T03:29:44.598Z,98.50
2023-09-26T03:32:46.862Z,98.40
2023-09-26T03:35:49.068Z,98.70
2023-09-26T03:38:51.299Z,98.80
2023-09-26T03:41:53.531Z,98.80
2023-09-26T03:44:55.732Z,99.10
2023-09-26T03:47:58.043Z,99.00
2023-09-26T03:51:10.279Z,98.90
2023-09-26T03:54:12.442Z,99.00
2023-09-26T03:57:14.573Z,99.00
2023-09-26T04:00:18.332Z,98.70
2023-09-26T04:03:23.905Z,98.90
2023-09-26T04:06:26.176Z,98.80
2023-09-26T04:09:28.369Z,99.10
2023-09-26T04:12:30.469Z,99.30
2023-09-26T04:15:32.933Z,99.30
2023-09-26T04:18:35.273Z,99.50
2023-09-26T04:21:37.432Z,99.60
2023-09-26T04:24:39.560Z,99.80
2023-09-26T04:27:41.970Z,99.70
2023-09-26T04:30:44.375Z,99.60
2023-09-26T04:33:50.479Z,99.60
2023-09-26T04:36:52.892Z,99.90
2023-09-26T04:39:55.509Z,99.90
2023-09-26T04:43:02.529Z,99.90
2023-09-26T04:46:12.214Z,99.90
2023-09-26T04:49:14.653Z,99.90
2023-09-26T04:52:16.847Z,99.90
2023-09-26T04:55:19.072Z,99.90
2023-09-26T04:58:21.433Z,99.90
2023-09-26T05:01:27.464Z,99.90
2023-09-26T05:04:29.886Z,99.90
2023-09-26T05:07:32.462Z,99.90
2023-09-26T05:10:38.741Z,99.90
2023-09-26T05:13:40.991Z,99.90
2023-09-26T05:16:43.339Z,99.90
2023-09-26T05:19:46.275Z,99.90
2023-09-26T05:22:50.609Z,99.90
2023-09-26T05:25:53.782Z,99.90
2023-09-26T05:28:55.937Z,99.90
2023-09-26T05:31:58.149Z,99.90
2023-09-26T05:35:00.473Z,99.90
2023-09-26T05:38:02.688Z,99.90
2023-09-26T05:41:06.851Z,99.90
2023-09-26T05:44:09.280Z,99.90
2023-09-26T05:47:11.551Z,99.90
2023-09-26T05:50:13.978Z,99.90
2023-09-26T05:53:16.294Z,99.90
2023-09-26T05:56:18.866Z,99.90
2023-09-26T05:59:21.057Z,99.90
2023-09-26T06:02:23.249Z,99.90
2023-09-26T06:05:26.890Z,99.90
2023-09-26T06:08:29.182Z,99.90
2023-09-26T06:11:31.385Z,99.90
2023-09-26T06:14:35.343Z,99.90
2023-09-26T06:17:37.867Z,99.90
2023-09-26T06:20:45.827Z,99.90
2023-09-26T06:23:49.948Z,99.90
2023-09-26T06:26:52.614Z,99.90
2023-09-26T06:29:55.011Z,99.90
2023-09-26T06:32:57.289Z,99.90
2023-09-26T06:36:00.170Z,99.90
2023-09-26T06:39:02.441Z,99.90
2023-09-26T06:42:04.801Z,99.90
2023-09-26T06:45:07.736Z,99.90
2023-09-26T06:48:10.129Z,99.90
2023-09-26T06:51:12.755Z,99.90
2023-09-26T06:54:14.947Z,99.60
2023-09-26T06:57:19.502Z,98.60
2023-09-26T07:00:21.716Z,97.70
2023-09-26T07:03:24.507Z,96.30
2023-09-26T07:06:26.871Z,95.70
2023-09-26T07:09:29.281Z,94.00
2023-09-26T07:12:31.857Z,93.10
2023-09-26T07:15:33.998Z,91.70
2023-09-26T07:18:39.032Z,91.40
2023-09-26T07:21:41.283Z,90.60
2023-09-26T07:27:51.796Z,88.10
2023-09-26T07:30:54.801Z,86.60
2023-09-26T07:33:57.366Z,86.70
2023-09-26T07:36:59.741Z,86.50
2023-09-26T07:40:06.313Z,86.20
2023-09-26T07:43:08.605Z,86.80
2023-09-26T07:46:12.392Z,89.00
2023-09-26T07:49:14.879Z,90.50
2023-09-26T07:52:19.313Z,91.30
2023-09-26T07:55:21.704Z,92.10
2023-09-26T07:58:24.516Z,92.70
2023-09-26T08:01:27.132Z,93.00
2023-09-26T08:04:29.735Z,93.30
2023-09-26T08:07:32.280Z,93.30
2023-09-26T08:10:39.357Z,93.20
2023-09-26T08:13:41.778Z,93.60
2023-09-26T08:16:44.158Z,93.40
2023-09-26T08:19:46.590Z,93.20
2023-09-26T08:22:48.793Z,93.10
2023-09-26T08:25:51.025Z,93.10
2023-09-26T08:28:53.327Z,93.60
2023-09-26T08:31:56.389Z,93.70
2023-09-26T08:34:58.880Z,92.20
2023-09-26T08:38:01.096Z,89.70
2023-09-26T08:41:06.950Z,82.90
2023-09-26T08:44:09.374Z,79.70
2023-09-26T08:47:11.808Z,77.90
2023-09-26T08:50:14.186Z,75.30
2023-09-26T08:53:16.554Z,73.40
2023-09-26T08:56:21.507Z,72.60
2023-09-26T08:59:24.051Z,73.40
2023-09-26T09:02:26.682Z,72.80
2023-09-26T09:05:29.241Z,72.50
2023-09-26T09:08:31.644Z,72.10
2023-09-26T09:11:34.576Z,71.30
2023-09-26T09:14:37.669Z,70.30
2023-09-26T09:17:44.120Z,66.20
2023-09-26T09:20:46.289Z,60.90
2023-09-26T09:23:53.368Z,58.10
2023-09-26T09:26:55.774Z,54.80
2023-09-26T09:30:20.725Z,50.90
2023-09-26T09:33:23.717Z,50.00
2023-09-26T09:36:26.138Z,50.80
2023-09-26T09:39:28.413Z,49.50
2023-09-26T09:42:30.952Z,51.20
2023-09-26T09:45:38.343Z,50.50
2023-09-26T09:48:46.357Z,50.00
2023-09-26T09:51:49.106Z,48.70
2023-09-26T09:54:54.280Z,48.90
2023-09-26T09:57:58.694Z,49.50
2023-09-26T10:01:04.363Z,48.10
2023-09-26T10:04:07.945Z,47.60
2023-09-26T10:07:11.209Z,47.80
2023-09-26T10:10:15.467Z,47.90
2023-09-26T10:16:26.610Z,44.40
2023-09-26T10:19:47.715Z,44.00
2023-09-26T10:23:11.138Z,44.30
2023-09-26T10:26:13.592Z,44.20
2023-09-26T10:29:15.851Z,44.20
2023-09-26T10:32:33.458Z,43.00
2023-09-26T10:35:45.584Z,43.50
2023-09-26T10:39:06.788Z,41.60
2023-09-26T10:45:26.489Z,42.50
2023-09-26T10:48:28.779Z,40.40
2023-09-26T10:51:31.352Z,40.40
2023-09-26T10:54:35.185Z,42.00
2023-09-26T10:57:39.564Z,42.60
2023-09-26T11:04:15.924Z,44.30
2023-09-26T11:07:18.484Z,43.90
2023-09-26T11:10:21.200Z,44.80
2023-09-26T11:13:26.743Z,45.60
2023-09-26T11:16:28.918Z,44.40
2023-09-26T11:19:31.396Z,43.90
2023-09-26T11:22:50.687Z,43.60
2023-09-26T11:25:53.730Z,43.30
2023-09-26T11:28:56.509Z,44.00
2023-09-26T11:31:58.965Z,42.50
2023-09-26T11:35:01.704Z,44.40
2023-09-26T11:38:05.471Z,47.80
2023-09-26T11:41:07.855Z,50.50
2023-09-26T11:44:11.657Z,52.40
2023-09-26T11:47:13.989Z,55.40
2023-09-26T11:50:16.912Z,56.70
2023-09-26T11:53:19.153Z,59.50
2023-09-26T11:56:28.676Z,59.80
2023-09-26T11:59:31.466Z,60.30
2023-09-26T12:02:34.988Z,61.20
2023-09-26T12:05:37.603Z,62.70
2023-09-26T12:08:40.129Z,63.10
2023-09-26T12:11:42.433Z,64.20
2023-09-26T12:14:47.419Z,64.80
2023-09-26T12:17:54.353Z,65.30
2023-09-26T12:20:57.451Z,66.00
2023-09-26T12:23:59.734Z,66.00
2023-09-26T12:27:03.908Z,65.90
2023-09-26T12:30:06.810Z,66.40
2023-09-26T12:33:09.070Z,67.80
2023-09-26T12:36:11.821Z,68.20
2023-09-26T12:39:14.059Z,67.40
2023-09-26T12:42:16.503Z,67.80
2023-09-26T12:45:18.910Z,68.50
2023-09-26T12:48:21.813Z,68.50
2023-09-26T12:51:23.994Z,67.80
2023-09-26T12:54:27.277Z,67.90
2023-09-26T12:57:29.467Z,67.60
2023-09-26T13:00:32.174Z,67.50
2023-09-26T13:03:34.433Z,66.40
2023-09-26T13:06:36.730Z,67.00
2023-09-26T13:09:38.996Z,66.80
2023-09-26T13:12:44.309Z,67.20
2023-09-26T13:15:47.339Z,72.20
2023-09-26T13:18:49.731Z,72.00
2023-09-26T13:21:52.685Z,72.00
2023-09-26T13:24:55.004Z,73.10
2023-09-26T13:27:58.260Z,74.70
2023-09-26T13:31:00.451Z,75.40
2023-09-26T13:34:02.724Z,75.90
2023-09-26T13:37:04.873Z,75.30
2023-09-26T13:40:07.670Z,74.80
2023-09-26T13:43:09.986Z,74.50
2023-09-26T13:46:12.193Z,74.60
2023-09-26T13:49:14.963Z,74.10
2023-09-26T13:52:17.237Z,74.10
2023-09-26T13:55:19.563Z,74.80
2023-09-26T13:58:21.859Z,75.20
2023-09-26T14:01:24.260Z,75.20
2023-09-26T14:04:26.525Z,75.90
2023-09-26T14:07:29.506Z,75.80
2023-09-26T14:10:33.534Z,76.00
2023-09-26T14:13:35.785Z,76.50
2023-09-26T14:16:38.132Z,76.30
2023-09-26T14:19:40.556Z,76.50
2023-09-26T14:22:42.932Z,76.20
2023-09-26T14:25:54.358Z,76.40
2023-09-26T14:29:01.597Z,75.90
2023-09-26T14:32:04.357Z,76.60
2023-09-26T14:35:07.584Z,75.20
2023-09-26T14:38:09.964Z,75.20
2023-09-26T14:41:12.183Z,74.90
2023-09-26T14:44:16.860Z,74.50
2023-09-26T14:47:21.173Z,74.50
2023-09-26T14:50:23.466Z,74.70
2023-09-26T14:53:26.677Z,74.40
2023-09-26T14:56:28.922Z,74.30
2023-09-26T14:59:32.228Z,74.30
2023-09-26T15:02:34.575Z,74.50
2023-09-26T15:05:38.298Z,74.10
2023-09-26T15:08:41.024Z,70.90
2023-09-26T15:11:43.646Z,69.10
2023-09-26T15:14:46.115Z,68.80
2023-09-26T15:17:48.472Z,68.30
2023-09-26T15:20:50.757Z,67.90
2023-09-26T15:23:53.104Z,68.80
2023-09-26T15:26:55.416Z,67.80
2023-09-26T15:29:57.601Z,68.30
2023-09-26T15:32:59.915Z,67.70
2023-09-26T15:36:02.314Z,67.90
2023-09-26T15:39:04.738Z,67.60
2023-09-26T15:42:07.233Z,68.00
2023-09-26T15:45:09.759Z,67.60
2023-09-26T15:48:11.935Z,68.10
2023-09-26T15:51:15.723Z,68.00
2023-09-26T15:54:18.548Z,67.70
2023-09-26T15:57:20.815Z,67.70
2023-09-26T16:00:25.357Z,68.00
2023-09-26T16:03:27.728Z,68.00
2023-09-26T16:06:31.367Z,67.50
2023-09-26T16:09:33.836Z,67.60
2023-09-26T16:12:39.872Z,67.50
2023-09-26T16:15:48.490Z,67.60
2023-09-26T16:18:50.883Z,66.40
2023-09-26T16:21:53.114Z,66.10
2023-09-26T16:24:55.410Z,65.90
2023-09-26T16:27:57.818Z,65.90
2023-09-26T16:31:00.000Z,66.30
2023-09-26T16:34:02.265Z,66.10
2023-09-26T16:37:04.395Z,66.00
2023-09-26T16:40:11.836Z,66.30
2023-09-26T16:43:14.136Z,66.20
2023-09-26T16:46:17.486Z,65.30
2023-09-26T16:49:21.037Z,65.40
2023-09-26T16:52:23.333Z,65.10
2023-09-26T16:55:25.759Z,65.30
2023-09-26T16:58:28.111Z,64.80
2023-09-26T17:01:30.962Z,64.50
2023-09-26T17:04:33.564Z,64.60
2023-09-26T17:07:35.747Z,64.50
2023-09-26T17:10:38.504Z,64.50
2023-09-26T17:13:40.918Z,64.80
2023-09-26T17:16:43.079Z,64.70
2023-09-26T17:19:45.378Z,64.20
2023-09-26T17:22:47.698Z,64.30
2023-09-26T17:25:50.342Z,64.60
2023-09-26T17:28:53.281Z,64.50
2023-09-26T17:31:55.604Z,64.30
2023-09-26T17:34:58.048Z,64.10
2023-09-26T17:38:00.663Z,64.10
2023-09-26T17:41:03.803Z,64.10
2023-09-26T17:44:06.401Z,64.00
2023-09-26T17:47:08.654Z,64.50
2023-09-26T17:50:11.254Z,64.50
2023-09-26T17:53:13.393Z,64.40
2023-09-26T17:56:15.600Z,64.40
2023-09-26T17:59:17.948Z,64.40
2023-09-26T18:02:20.161Z,64.60
2023-09-26T18:05:24.463Z,64.50
2023-09-26T18:08:27.049Z,64.70
2023-09-26T18:11:29.303Z,64.60
2023-09-26T18:14:31.479Z,64.30
2023-09-26T18:17:33.854Z,64.20
2023-09-26T18:20:36.191Z,64.40
2023-09-26T18:23:38.499Z,64.00
2023-09-26T18:26:40.772Z,64.20
2023-09-26T18:29:43.282Z,64.10
2023-09-26T18:32:50.517Z,64.20
2023-09-26T18:35:52.862Z,63.90
2023-09-26T18:38:55.091Z,63.90
2023-09-26T18:41:57.386Z,63.60
2023-09-26T18:44:59.570Z,63.90
2023-09-26T18:48:01.953Z,64.10
2023-09-26T18:51:04.674Z,64.20
2023-09-26T18:54:07.064Z,64.60
2023-09-26T18:57:09.235Z,64.80
2023-09-26T19:00:12.170Z,65.30
2023-09-26T19:03:14.632Z,65.30
2023-09-26T19:06:16.994Z,65.50
2023-09-26T19:09:19.228Z,65.30
2023-09-26T19:12:22.408Z,65.50
2023-09-26T19:15:24.619Z,65.30
2023-09-26T19:18:26.946Z,65.60
2023-09-26T19:21:29.436Z,64.90
2023-09-26T19:24:31.682Z,65.10
2023-09-26T19:27:33.846Z,65.00
2023-09-26T19:30:39.620Z,65.20
2023-09-26T19:33:41.804Z,65.40
2023-09-26T19:36:44.856Z,65.40
2023-09-26T19:39:47.063Z,65.70
2023-09-26T19:42:49.736Z,65.50
2023-09-26T19:45:51.870Z,65.50
2023-09-26T19:48:54.534Z,65.60
2023-09-26T19:51:56.871Z,65.20
2023-09-26T19:54:59.061Z,65.20
2023-09-26T19:58:01.280Z,65.50
2023-09-26T20:01:03.604Z,65.60
2023-09-26T20:04:06.234Z,66.10
2023-09-26T20:07:08.442Z,66.20
2023-09-26T20:10:10.865Z,66.20
2023-09-26T20:13:13.124Z,66.30
2023-09-26T20:16:17.878Z,66.30
2023-09-26T20:19:20.153Z,66.50
2023-09-26T20:22:22.315Z,66.70
2023-09-26T20:25:24.783Z,66.80
2023-09-26T20:28:27.046Z,66.80
2023-09-26T20:31:29.347Z,66.80
2023-09-26T20:34:31.851Z,67.10
2023-09-26T20:37:33.967Z,67.40
2023-09-26T20:40:37.810Z,67.80
2023-09-26T20:43:40.040Z,68.30
2023-09-26T20:46:42.282Z,68.60
2023-09-26T20:49:44.534Z,68.90
2023-09-26T20:52:46.792Z,69.00
2023-09-26T20:55:50.168Z,70.00
2023-09-26T20:58:52.673Z,68.90
2023-09-26T21:01:55.258Z,69.20
2023-09-26T21:04:57.545Z,69.00
2023-09-26T21:08:01.442Z,68.90
2023-09-26T21:11:03.859Z,69.00
2023-09-26T21:14:06.127Z,68.50
2023-09-26T21:17:08.663Z,68.90
2023-09-26T21:20:11.529Z,68.80
2023-09-26T21:23:14.049Z,68.20
2023-09-26T21:26:20.239Z,68.40
2023-09-26T21:29:22.468Z,68.70
2023-09-26T21:32:24.770Z,68.90
2023-09-26T21:35:27.202Z,69.20
2023-09-26T21:38:29.732Z,69.40
2023-09-26T21:41:32.062Z,69.70
2023-09-26T21:44:35.098Z,69.50
2023-09-26T21:47:37.454Z,69.40
2023-09-26T21:50:39.738Z,69.50
2023-09-26T21:53:42.017Z,69.70
2023-09-26T21:56:47.181Z,70.20
2023-09-26T21:59:49.387Z,70.20
2023-09-26T22:02:59.936Z,70.70
2023-09-26T22:06:02.444Z,71.10
2023-09-26T22:09:04.867Z,71.60
2023-09-26T22:12:07.301Z,71.90
2023-09-26T22:15:11.059Z,72.00
2023-09-26T22:18:13.402Z,72.60
2023-09-26T22:21:15.596Z,72.90
2023-09-26T22:24:19.182Z,72.80
2023-09-26T22:27:23.047Z,72.80
2023-09-26T22:30:25.248Z,73.00
2023-09-26T22:33:27.937Z,73.10
2023-09-26T22:36:30.509Z,73.20
2023-09-26T22:39:32.813Z,73.60
2023-09-26T22:42:35.193Z,73.50
2023-09-26T22:45:38.310Z,73.50
2023-09-26T22:48:41.894Z,74.00
2023-09-26T22:51:44.796Z,73.90
2023-09-26T22:54:48.448Z,74.20
2023-09-26T22:57:50.628Z,74.00
2023-09-26T23:00:52.785Z,73.70
2023-09-26T23:03:55.418Z,74.10
2023-09-26T23:06:58.060Z,74.20
2023-09-26T23:10:01.030Z,74.10
2023-09-26T23:13:03.982Z,74.80
2023-09-26T23:16:08.348Z,74.50
2023-09-26T23:19:10.599Z,75.00
2023-09-26T23:22:12.796Z,75.50
2023-09-26T23:25:15.221Z,74.80
2023-09-26T23:28:18.813Z,75.20
2023-09-26T23:31:21.191Z,75.20
2023-09-26T23:34:25.396Z,75.10
2023-09-26T23:37:28.896Z,75.50
2023-09-26T23:40:33.745Z,75.70
2023-09-26T23:43:37.028Z,76.50
2023-09-26T23:46:39.338Z,75.90
2023-09-26T23:49:41.584Z,76.10
2023-09-26T23:52:45.469Z,76.00
2023-09-26T23:55:47.825Z,75.90
2023-09-26T23:58:50.363Z,76.00
